createdAt,value
2019-05-18T00:02:03.981Z,24.60
2019-05-18T00:04:33.052Z,25.53
2019-05-18T00:07:02.099Z,24.55
2019-05-18T00:09:30.910Z,25.13
2019-05-18T00:11:59.690Z,24.75
2019-05-18T00:14:28.552Z,22.13
2019-05-18T00:16:57.514Z,26.40
2019-05-18T00:19:26.294Z,24.13
2019-05-18T00:21:55.041Z,23.60
2019-05-18T00:24:23.811Z,26.47
2019-05-18T00:26:52.613Z,26.40
2019-05-18T00:29:21.377Z,32.80
2019-05-18T00:31:50.130Z,26.13
2019-05-18T00:34:19.014Z,25.80
2019-05-18T00:36:47.794Z,26.80
2019-05-18T00:39:16.651Z,23.95
2019-05-18T00:41:45.683Z,26.97
2019-05-18T00:44:14.430Z,25.77
2019-05-18T00:46:43.204Z,24.97
2019-05-18T00:49:13.137Z,26.27
2019-05-18T00:51:41.921Z,31.27
2019-05-18T00:54:10.730Z,26.30
2019-05-18T00:56:39.602Z,26.67
2019-05-18T00:59:08.405Z,27.33
2019-05-18T01:01:37.386Z,31.47
2019-05-18T01:04:06.141Z,29.73
2019-05-18T01:06:34.905Z,25.40
2019-05-18T01:09:05.549Z,31.13
2019-05-18T01:11:34.394Z,32.07
2019-05-18T01:14:03.385Z,34.23
2019-05-18T01:16:32.141Z,28.65
2019-05-18T01:19:01.004Z,35.40
2019-05-18T01:21:29.757Z,32.97
2019-05-18T01:23:58.493Z,25.10
2019-05-18T01:26:27.320Z,30.30
2019-05-18T01:28:59.030Z,33.10
2019-05-18T01:31:27.791Z,31.60
2019-05-18T01:33:56.605Z,32.07
2019-05-18T01:36:25.380Z,26.40
2019-05-18T01:38:54.128Z,25.37
2019-05-18T01:41:23.009Z,31.00
2019-05-18T01:43:51.764Z,35.65
2019-05-18T01:46:21.381Z,31.73
2019-05-18T01:48:50.225Z,29.18
2019-05-18T01:51:19.579Z,28.87
2019-05-18T01:53:48.483Z,30.67
2019-05-18T01:56:17.243Z,32.63
2019-05-18T01:58:46.183Z,33.83
2019-05-18T02:01:15.057Z,32.73
2019-05-18T02:03:43.977Z,30.80
2019-05-18T02:06:12.903Z,30.77
2019-05-18T02:08:41.646Z,30.27
2019-05-18T02:11:10.416Z,32.53
2019-05-18T02:13:39.264Z,36.60
2019-05-18T02:16:08.020Z,38.58
2019-05-18T02:18:36.903Z,30.00
2019-05-18T02:21:05.998Z,37.30
2019-05-18T02:23:34.758Z,35.60
2019-05-18T02:26:05.892Z,36.43
2019-05-18T02:28:34.739Z,39.00
2019-05-18T02:31:03.744Z,36.00
2019-05-18T02:33:32.492Z,34.60
2019-05-18T02:36:01.322Z,35.23
2019-05-18T02:38:30.122Z,34.50
2019-05-18T02:40:58.894Z,36.43
2019-05-18T02:43:27.684Z,34.13
2019-05-18T02:45:56.802Z,36.50
2019-05-18T02:48:25.569Z,37.90
2019-05-18T02:50:54.353Z,38.93
2019-05-18T02:53:23.248Z,51.03
2019-05-18T02:55:52.028Z,46.73
2019-05-18T02:58:20.907Z,38.90
2019-05-18T03:00:49.710Z,46.03
2019-05-18T03:03:18.537Z,44.20
2019-05-18T03:05:47.515Z,40.17
2019-05-18T03:08:16.264Z,44.67
2019-05-18T03:10:45.380Z,44.97
2019-05-18T03:13:14.297Z,49.33
2019-05-18T03:15:43.075Z,46.00
2019-05-18T03:18:11.951Z,42.78
2019-05-18T03:20:40.870Z,40.90
2019-05-18T03:23:09.625Z,36.27
2019-05-18T03:25:38.378Z,46.87
2019-05-18T03:28:07.214Z,43.68
2019-05-18T03:30:36.039Z,44.33
2019-05-18T03:33:05.498Z,38.37
2019-05-18T03:35:36.326Z,41.27
2019-05-18T03:38:05.938Z,49.70
2019-05-18T03:40:37.050Z,44.00
2019-05-18T03:43:06.621Z,46.70
2019-05-18T03:45:35.455Z,43.10
2019-05-18T03:48:05.261Z,37.53
2019-05-18T03:50:34.302Z,46.40
2019-05-18T03:53:04.255Z,43.17
2019-05-18T03:55:33.195Z,41.33
2019-05-18T03:58:01.959Z,38.97
2019-05-18T04:00:30.719Z,42.73
2019-05-18T04:03:00.391Z,40.43
2019-05-18T04:05:29.126Z,40.20
2019-05-18T04:07:58.053Z,45.33
2019-05-18T04:10:27.909Z,47.67
2019-05-18T04:12:56.636Z,42.30
2019-05-18T04:15:25.599Z,42.30
2019-05-18T04:17:54.340Z,42.20
2019-05-18T04:20:23.098Z,41.00
2019-05-18T04:22:51.941Z,42.57
2019-05-18T04:25:20.691Z,41.18
2019-05-18T04:27:49.604Z,40.03
2019-05-18T04:30:18.360Z,41.98
2019-05-18T04:32:47.139Z,34.30
2019-05-18T04:35:16.046Z,43.75
2019-05-18T04:37:44.786Z,37.33
2019-05-18T04:40:14.845Z,30.30
2019-05-18T04:42:43.593Z,28.03
2019-05-18T04:45:13.040Z,32.17
2019-05-18T04:47:41.834Z,28.27
2019-05-18T04:50:10.687Z,24.43
2019-05-18T04:52:39.486Z,27.17
2019-05-18T04:55:08.819Z,25.67
2019-05-18T04:57:37.626Z,26.23
2019-05-18T05:00:08.853Z,26.87
2019-05-18T05:02:37.662Z,26.30
2019-05-18T05:05:08.093Z,26.70
2019-05-18T05:07:36.936Z,28.37
2019-05-18T05:10:07.359Z,23.90
2019-05-18T05:12:36.111Z,26.93
2019-05-18T05:15:06.804Z,28.67
2019-05-18T05:17:35.634Z,26.90
2019-05-18T05:22:40.862Z,25.00
2019-05-18T05:25:10.025Z,28.85
2019-05-18T05:27:38.781Z,28.63
2019-05-18T05:30:12.114Z,28.30
2019-05-18T05:32:41.204Z,25.03
2019-05-18T05:35:10.445Z,26.30
2019-05-18T05:37:39.487Z,27.30
2019-05-18T05:40:08.468Z,25.70
2019-05-18T05:42:37.514Z,24.57
2019-05-18T05:45:08.158Z,23.63
2019-05-18T05:47:36.989Z,27.13
2019-05-18T05:50:10.094Z,29.87
2019-05-18T05:52:39.113Z,25.50
2019-05-18T05:55:10.005Z,26.50
2019-05-18T05:57:39.210Z,26.97
2019-05-18T06:00:10.559Z,26.20
2019-05-18T06:02:39.685Z,27.63
2019-05-18T06:05:09.490Z,30.23
2019-05-18T06:07:38.318Z,28.17
2019-05-18T06:10:08.170Z,28.63
2019-05-18T06:12:37.019Z,28.03
2019-05-18T06:15:08.462Z,27.00
2019-05-18T06:17:37.255Z,26.20
2019-05-18T06:20:08.430Z,27.13
2019-05-18T06:22:37.254Z,29.77
2019-05-18T06:25:07.402Z,35.67
2019-05-18T06:27:36.422Z,26.90
2019-05-18T06:30:08.495Z,31.40
2019-05-18T06:32:37.402Z,24.67
2019-05-18T06:35:06.313Z,27.47
2019-05-18T06:37:35.084Z,24.77
2019-05-18T06:40:05.605Z,24.20
2019-05-18T06:42:35.029Z,28.17
2019-05-18T06:45:06.629Z,28.97
2019-05-18T06:47:37.937Z,24.30
2019-05-18T06:50:12.765Z,25.93
2019-05-18T06:52:42.617Z,27.03
2019-05-18T06:55:17.211Z,25.33
2019-05-18T06:57:46.085Z,26.80
2019-05-18T07:00:16.938Z,28.43
2019-05-18T07:02:45.913Z,26.20
2019-05-18T07:05:14.932Z,26.03
2019-05-18T07:07:43.978Z,23.37
2019-05-18T07:10:13.069Z,25.90
2019-05-18T07:12:42.267Z,25.80
2019-05-18T07:15:11.848Z,32.33
2019-05-18T07:17:40.557Z,27.80
2019-05-18T07:20:09.660Z,30.40
2019-05-18T07:22:38.541Z,24.27
2019-05-18T07:25:08.902Z,26.97
2019-05-18T07:27:37.719Z,23.70
2019-05-18T07:30:11.938Z,21.57
2019-05-18T07:32:40.889Z,23.97
2019-05-18T07:35:11.939Z,23.57
2019-05-18T07:37:40.798Z,23.43
2019-05-18T07:40:09.973Z,21.33
2019-05-18T07:42:40.389Z,25.47
2019-05-18T07:45:10.405Z,22.50
2019-05-18T07:47:39.376Z,22.77
2019-05-18T07:50:08.450Z,22.47
2019-05-18T07:52:37.451Z,21.00
2019-05-18T07:55:08.098Z,23.27
2019-05-18T07:57:36.891Z,22.10
2019-05-18T08:00:10.395Z,24.53
2019-05-18T08:02:39.216Z,20.97
2019-05-18T08:05:09.309Z,22.20
2019-05-18T08:07:38.168Z,20.70
2019-05-18T08:10:08.594Z,20.67
2019-05-18T08:12:37.434Z,20.10
2019-05-18T08:15:12.100Z,21.00
2019-05-18T08:17:41.061Z,19.00
2019-05-18T08:20:10.151Z,23.20
2019-05-18T08:22:38.908Z,18.23
2019-05-18T08:25:09.131Z,19.10
2019-05-18T08:27:38.033Z,18.93
2019-05-18T08:30:08.835Z,21.47
2019-05-18T08:32:38.478Z,17.73
2019-05-18T08:35:12.118Z,18.00
2019-05-18T08:37:41.369Z,14.43
2019-05-18T08:40:12.090Z,15.17
2019-05-18T08:42:40.979Z,19.53
2019-05-18T08:45:11.008Z,14.93
2019-05-18T08:47:39.958Z,16.17
2019-05-18T08:50:09.934Z,15.17
2019-05-18T08:52:38.848Z,14.53
2019-05-18T08:55:09.862Z,14.90
2019-05-18T08:57:39.211Z,15.20
2019-05-18T09:00:10.137Z,12.67
2019-05-18T09:02:38.999Z,9.50
2019-05-18T09:05:07.998Z,12.17
2019-05-18T09:07:36.871Z,6.53
2019-05-18T09:10:10.054Z,15.83
2019-05-18T09:12:38.973Z,8.87
2019-05-18T09:15:09.089Z,9.50
2019-05-18T09:17:38.165Z,10.90
2019-05-18T09:20:09.733Z,11.70
2019-05-18T09:22:38.793Z,11.90
2019-05-18T09:25:08.447Z,10.93
2019-05-18T09:27:37.361Z,10.30
2019-05-18T09:30:16.446Z,13.20
2019-05-18T09:32:59.209Z,11.80
2019-05-18T09:35:28.633Z,12.37
2019-05-18T09:37:59.803Z,14.20
2019-05-18T09:40:28.334Z,10.70
2019-05-18T09:42:57.347Z,9.83
2019-05-18T09:45:26.252Z,10.40
2019-05-18T09:47:55.371Z,10.80
2019-05-18T09:50:24.529Z,9.17
2019-05-18T09:52:53.556Z,10.17
2019-05-18T09:55:22.509Z,9.83
2019-05-18T09:57:51.539Z,10.70
2019-05-18T10:00:22.228Z,14.27
2019-05-18T10:02:53.175Z,11.33
2019-05-18T10:05:22.170Z,9.87
2019-05-18T10:07:51.053Z,8.87
2019-05-18T10:10:20.153Z,11.43
2019-05-18T10:12:49.488Z,11.03
2019-05-18T10:15:19.014Z,9.27
2019-05-18T10:17:51.471Z,10.70
2019-05-18T10:20:20.795Z,9.67
2019-05-18T10:22:59.219Z,10.40
2019-05-18T10:25:21.810Z,10.67
2019-05-18T10:27:50.745Z,14.30
2019-05-18T10:30:21.341Z,10.70
2019-05-18T10:32:50.288Z,8.57
2019-05-18T10:35:19.186Z,9.03
2019-05-18T10:37:54.394Z,11.53
2019-05-18T10:40:23.189Z,12.13
2019-05-18T10:42:52.359Z,13.57
2019-05-18T10:45:25.657Z,12.40
2019-05-18T10:47:55.329Z,11.73
2019-05-18T10:50:27.868Z,12.67
2019-05-18T10:52:56.713Z,13.10
2019-05-18T10:55:26.073Z,11.23
2019-05-18T10:57:56.621Z,15.33
2019-05-18T11:00:25.379Z,12.17
2019-05-18T11:02:54.277Z,11.73
2019-05-18T11:05:26.162Z,11.23
2019-05-18T11:07:55.161Z,11.80
2019-05-18T11:10:27.046Z,12.80
2019-05-18T11:12:56.060Z,14.10
2019-05-18T11:15:25.100Z,10.13
2019-05-18T11:17:53.899Z,11.80
2019-05-18T11:20:22.962Z,11.80
2019-05-18T11:22:51.858Z,9.17
2019-05-18T11:25:21.540Z,13.45
2019-05-18T11:27:50.440Z,9.00
2019-05-18T11:30:20.625Z,9.10
2019-05-18T11:32:49.599Z,8.47
2019-05-18T11:35:19.930Z,14.37
2019-05-18T11:37:48.738Z,14.80
2019-05-18T11:40:18.636Z,11.43
2019-05-18T11:42:47.601Z,10.00
2019-05-18T11:45:18.980Z,16.67
2019-05-18T11:47:47.905Z,12.40
2019-05-18T11:50:18.110Z,11.20
2019-05-18T11:52:46.895Z,10.03
2019-05-18T11:55:16.130Z,11.00
2019-05-18T11:57:44.949Z,13.37
2019-05-18T12:00:15.866Z,15.13
2019-05-18T12:02:44.759Z,11.30
2019-05-18T12:05:15.949Z,15.57
2019-05-18T12:07:44.736Z,12.40
2019-05-18T12:10:13.832Z,15.83
2019-05-18T12:12:42.709Z,10.70
2019-05-18T12:15:13.929Z,9.80
2019-05-18T12:17:42.729Z,9.77
2019-05-18T12:20:13.024Z,9.50
2019-05-18T12:22:41.877Z,13.80
2019-05-18T12:25:10.917Z,9.43
2019-05-18T12:27:40.078Z,8.63
2019-05-18T12:30:13.386Z,8.50
2019-05-18T12:32:42.307Z,7.27
2019-05-18T12:35:12.100Z,8.23
2019-05-18T12:37:41.024Z,9.23
2019-05-18T12:40:12.770Z,6.93
2019-05-18T12:42:41.620Z,12.80
2019-05-18T12:45:11.160Z,11.90
2019-05-18T12:47:40.018Z,8.83
2019-05-18T12:50:11.258Z,8.70
2019-05-18T12:52:40.127Z,7.20
2019-05-18T12:55:11.305Z,6.20
2019-05-18T12:57:40.299Z,6.97
2019-05-18T13:00:11.432Z,9.43
2019-05-18T13:02:41.036Z,5.73
2019-05-18T13:05:12.269Z,4.77
2019-05-18T13:07:41.669Z,6.00
2019-05-18T13:10:12.338Z,5.03
2019-05-18T13:12:41.129Z,4.77
2019-05-18T13:15:12.782Z,6.10
2019-05-18T13:17:41.892Z,6.03
2019-05-18T13:20:12.980Z,5.97
2019-05-18T13:22:41.934Z,5.17
2019-05-18T13:25:13.251Z,4.95
2019-05-18T13:27:42.072Z,6.23
2019-05-18T13:30:13.324Z,4.83
2019-05-18T13:32:42.233Z,5.60
2019-05-18T13:35:13.141Z,5.92
2019-05-18T13:37:42.203Z,7.30
2019-05-18T13:40:15.708Z,6.20
2019-05-18T13:42:44.779Z,5.07
2019-05-18T13:45:17.256Z,5.50
2019-05-18T13:47:46.164Z,4.90
2019-05-18T13:50:16.082Z,4.70
2019-05-18T13:52:44.995Z,4.77
2019-05-18T13:55:14.188Z,10.20
2019-05-18T13:57:43.018Z,5.83
2019-05-18T14:00:11.992Z,9.13
2019-05-18T14:02:40.827Z,6.30
2019-05-18T14:05:10.781Z,5.97
2019-05-18T14:07:39.874Z,9.03
2019-05-18T14:10:12.653Z,7.23
2019-05-18T14:12:41.215Z,6.00
2019-05-18T14:15:11.790Z,8.25
2019-05-18T14:17:40.757Z,5.80
2019-05-18T14:20:10.831Z,5.53
2019-05-18T14:22:39.750Z,5.50
2019-05-18T14:25:19.508Z,6.40
2019-05-18T14:27:41.893Z,6.43
2019-05-18T14:30:12.935Z,5.10
2019-05-18T14:32:42.201Z,7.37
2019-05-18T14:35:11.069Z,5.30
2019-05-18T14:37:39.997Z,6.20
2019-05-18T14:40:08.959Z,5.07
2019-05-18T14:42:37.775Z,4.50
2019-05-18T14:45:09.944Z,7.07
2019-05-18T14:47:38.786Z,6.17
2019-05-18T14:50:07.898Z,7.10
2019-05-18T14:52:36.859Z,5.50
2019-05-18T14:55:08.569Z,5.63
2019-05-18T14:57:37.570Z,8.70
2019-05-18T15:00:08.445Z,4.90
2019-05-18T15:02:37.483Z,6.67
2019-05-18T15:05:10.864Z,5.20
2019-05-18T15:07:39.627Z,4.30
2019-05-18T15:10:10.377Z,4.50
2019-05-18T15:12:39.175Z,5.10
2019-05-18T15:15:10.114Z,6.00
2019-05-18T15:17:41.820Z,4.70
2019-05-18T15:20:11.169Z,5.57
2019-05-18T15:22:39.937Z,6.63
2019-05-18T15:25:09.101Z,6.43
2019-05-18T15:27:37.913Z,10.40
2019-05-18T15:30:08.441Z,4.40
2019-05-18T15:32:37.245Z,4.77
2019-05-18T15:35:10.879Z,5.30
2019-05-18T15:37:43.186Z,9.10
2019-05-18T15:40:11.226Z,4.60
2019-05-18T15:42:40.077Z,5.50
2019-05-18T15:45:09.400Z,4.73
2019-05-18T15:47:38.344Z,5.70
2019-05-18T15:50:07.500Z,6.30
2019-05-18T15:52:36.395Z,6.80
2019-05-18T15:55:08.547Z,4.97
2019-05-18T15:57:37.446Z,5.83
2019-05-18T16:00:11.443Z,5.70
2019-05-18T16:02:40.308Z,6.03
2019-05-18T16:05:10.321Z,4.47
2019-05-18T16:07:39.533Z,5.58
2019-05-18T16:10:14.136Z,9.93
2019-05-18T16:12:44.541Z,5.63
2019-05-18T16:15:14.670Z,6.90
2019-05-18T16:17:43.554Z,6.23
2019-05-18T16:20:12.638Z,5.30
2019-05-18T16:22:44.412Z,5.53
2019-05-18T16:25:12.567Z,5.42
2019-05-18T16:27:41.599Z,4.70
2019-05-18T16:30:11.604Z,5.30
2019-05-18T16:32:40.493Z,5.80
2019-05-18T16:35:09.673Z,5.60
2019-05-18T16:37:38.462Z,4.97
2019-05-18T16:40:09.814Z,6.07
2019-05-18T16:42:38.613Z,6.20
2019-05-18T16:45:09.697Z,8.03
2019-05-18T16:47:38.594Z,13.83
2019-05-18T16:50:08.549Z,15.97
2019-05-18T16:52:37.437Z,6.27
2019-05-18T16:55:10.715Z,5.37
2019-05-18T16:57:39.470Z,6.33
2019-05-18T17:00:15.953Z,23.10
2019-05-18T17:02:43.349Z,15.57
2019-05-18T17:05:16.780Z,15.50
2019-05-18T17:07:45.948Z,5.40
2019-05-18T17:10:15.994Z,4.50
2019-05-18T17:12:44.752Z,5.13
2019-05-18T17:15:13.711Z,7.73
2019-05-18T17:17:42.689Z,5.90
2019-05-18T17:20:12.323Z,6.05
2019-05-18T17:22:41.820Z,5.37
2019-05-18T17:25:11.032Z,5.33
2019-05-18T17:27:40.836Z,8.97
2019-05-18T17:30:10.262Z,4.60
2019-05-18T17:32:39.653Z,4.23
2019-05-18T17:35:10.108Z,4.53
2019-05-18T17:37:39.258Z,5.30
2019-05-18T17:40:08.760Z,5.30
2019-05-18T17:42:37.614Z,8.73
2019-05-18T17:45:09.057Z,12.63
2019-05-18T17:47:37.880Z,9.97
2019-05-18T17:50:08.883Z,5.97
2019-05-18T17:52:38.088Z,8.60
2019-05-18T17:55:08.040Z,6.70
2019-05-18T17:57:37.534Z,6.13
2019-05-18T18:00:09.146Z,5.77
2019-05-18T18:02:38.089Z,4.40
2019-05-18T18:05:09.307Z,4.83
2019-05-18T18:07:38.885Z,4.93
2019-05-18T18:10:08.992Z,4.90
2019-05-18T18:12:38.175Z,4.00
2019-05-18T18:15:09.449Z,5.30
2019-05-18T18:17:38.329Z,5.80
2019-05-18T18:20:08.172Z,5.80
2019-05-18T18:22:38.520Z,4.60
2019-05-18T18:25:08.464Z,7.87
2019-05-18T18:27:37.284Z,5.90
2019-05-18T18:30:08.327Z,4.60
2019-05-18T18:32:37.205Z,4.33
2019-05-18T18:35:08.929Z,7.23
2019-05-18T18:37:37.929Z,4.20
2019-05-18T18:40:08.563Z,7.83
2019-05-18T18:42:37.471Z,3.20
2019-05-18T18:45:09.035Z,3.60
2019-05-18T18:47:37.923Z,5.33
2019-05-18T18:50:07.073Z,4.00
2019-05-18T18:52:36.340Z,4.20
2019-05-18T18:55:08.855Z,3.83
2019-05-18T18:57:41.859Z,3.90
2019-05-18T19:00:10.735Z,4.80
2019-05-18T19:02:39.516Z,4.83
2019-05-18T19:05:12.231Z,7.23
2019-05-18T19:07:44.040Z,7.60
2019-05-18T19:10:16.233Z,4.28
2019-05-18T19:12:45.759Z,5.20
2019-05-18T19:15:16.311Z,5.13
2019-05-18T19:17:45.578Z,6.30
2019-05-18T19:20:18.006Z,4.27
2019-05-18T19:22:57.401Z,5.53
2019-05-18T19:25:31.126Z,5.97
2019-05-18T19:28:06.906Z,5.90
2019-05-18T19:30:37.035Z,4.70
2019-05-18T19:33:08.167Z,6.27
2019-05-18T19:35:37.241Z,4.70
2019-05-18T19:38:06.258Z,5.23
2019-05-18T19:40:35.113Z,5.63
2019-05-18T19:43:03.889Z,4.07
2019-05-18T19:45:33.368Z,5.60
2019-05-18T19:48:02.832Z,6.97
2019-05-18T19:50:32.141Z,5.57
2019-05-18T19:53:02.094Z,5.00
2019-05-18T19:55:31.107Z,7.17
2019-05-18T19:58:08.433Z,5.80
2019-05-18T20:00:30.616Z,9.60
2019-05-18T20:02:59.941Z,11.73
2019-05-18T20:05:29.018Z,13.80
2019-05-18T20:07:57.796Z,6.73
2019-05-18T20:10:26.639Z,11.20
2019-05-18T20:12:56.065Z,8.30
2019-05-18T20:15:24.867Z,11.12
2019-05-18T20:17:54.398Z,8.77
2019-05-18T20:20:23.531Z,9.10
2019-05-18T20:22:52.269Z,9.97
2019-05-18T20:25:21.390Z,9.23
2019-05-18T20:27:50.140Z,7.13
2019-05-18T20:30:19.111Z,6.73
2019-05-18T20:32:48.097Z,7.55
2019-05-18T20:35:18.154Z,9.98
2019-05-18T20:37:47.054Z,21.53
2019-05-18T20:40:15.806Z,12.10
2019-05-18T20:42:44.667Z,17.00
2019-05-18T20:45:13.565Z,14.33
2019-05-18T20:47:42.401Z,11.33
2019-05-18T20:50:11.308Z,8.98
2019-05-18T20:52:40.232Z,10.00
2019-05-18T20:55:09.202Z,12.33
2019-05-18T20:57:37.984Z,8.63
2019-05-18T21:00:08.169Z,14.80
2019-05-18T21:02:40.696Z,8.93
2019-05-18T21:05:15.043Z,10.20
2019-05-18T21:07:45.410Z,11.90
2019-05-18T21:10:14.353Z,10.98
2019-05-18T21:12:44.102Z,10.33
2019-05-18T21:15:14.369Z,10.17
2019-05-18T21:17:43.233Z,13.13
2019-05-18T21:20:12.282Z,13.13
2019-05-18T21:22:41.049Z,16.77
2019-05-18T21:25:11.432Z,13.63
2019-05-18T21:27:40.179Z,12.68
2019-05-18T21:30:09.259Z,11.97
2019-05-18T21:32:39.502Z,12.80
2019-05-18T21:35:10.460Z,11.13
2019-05-18T21:37:42.317Z,11.20
2019-05-18T21:40:26.337Z,14.17
2019-05-18T21:42:58.576Z,17.60
2019-05-18T21:45:28.166Z,13.57
2019-05-18T21:47:57.028Z,9.07
2019-05-18T21:50:25.818Z,9.80
2019-05-18T21:52:54.645Z,10.27
2019-05-18T21:55:23.511Z,12.93
2019-05-18T21:57:52.521Z,10.30
2019-05-18T22:00:24.610Z,12.70
2019-05-18T22:02:53.446Z,12.13
2019-05-18T22:05:22.475Z,15.60
2019-05-18T22:07:51.235Z,14.23
2019-05-18T22:10:25.848Z,14.33
2019-05-18T22:12:50.838Z,15.13
2019-05-18T22:15:19.592Z,12.77
2019-05-18T22:18:04.904Z,14.80
2019-05-18T22:20:39.940Z,16.20
2019-05-18T22:23:06.916Z,15.70
2019-05-18T22:25:36.013Z,11.97
2019-05-18T22:28:05.163Z,11.27
2019-05-18T22:30:33.894Z,12.93
2019-05-18T22:33:02.733Z,11.57
2019-05-18T22:35:31.587Z,16.87
2019-05-18T22:38:00.442Z,11.50
2019-05-18T22:40:29.209Z,14.87
2019-05-18T22:42:58.927Z,15.30
2019-05-18T22:45:30.634Z,18.70
2019-05-18T22:47:59.998Z,14.93
2019-05-18T22:50:28.856Z,13.57
2019-05-18T22:52:57.605Z,22.70
2019-05-18T22:55:26.482Z,15.27
2019-05-18T22:57:55.243Z,16.07
2019-05-18T23:00:24.372Z,22.73
2019-05-18T23:02:53.142Z,18.53
2019-05-18T23:05:21.887Z,20.97
2019-05-18T23:07:50.726Z,18.00
2019-05-18T23:10:19.688Z,15.72
2019-05-18T23:12:48.463Z,17.50
2019-05-18T23:15:17.263Z,15.90
2019-05-18T23:17:45.935Z,17.47
2019-05-18T23:20:15.195Z,23.32
2019-05-18T23:22:43.990Z,15.53
2019-05-18T23:25:13.015Z,21.50
2019-05-18T23:27:41.916Z,22.00
2019-05-18T23:30:11.414Z,21.33
2019-05-18T23:32:40.167Z,23.13
2019-05-18T23:35:08.916Z,22.77
2019-05-18T23:37:37.877Z,24.80
2019-05-18T23:40:07.142Z,22.30
2019-05-18T23:42:35.954Z,23.53
2019-05-18T23:45:07.642Z,25.08
2019-05-18T23:47:36.529Z,20.13
2019-05-18T23:50:06.874Z,22.10
2019-05-18T23:52:35.738Z,21.57
2019-05-18T23:55:07.575Z,23.07
2019-05-18T23:57:36.508Z,23.83
